Blessing, Texas
Current Conditions -  °F | °C
As of 5:53 AM on Thursday 18 Dec 2014 (Local Time) from KPSX Reporting Station
Haze Haze  
Wind Chill: 65°   Ceiling: 3000
Heat Index: 65°   Visibility: 6mi
Dew Point: 64°   Wind: 6mph
Humidity: 97%   Direction: 10°N
Pressure: 30.03"   Gusts: NA
Location:  28.87°N, 96.22°W
Report Text: KPSX 181153Z AUTO 01005KT 6SM BR SCT022 BKN030 OVC048 18/18 A3003 RMK AO2 LTG DSNT SE SLP170 60000 T01830178 10200 20183 55001
Loading
Personal Weather Stations






























Interactive Weather Map New forecast layout! Learn more

10-Day Weather Forecast

Advertisements
Track Severe Weather on mobile